Time,TemperatureF,DewpointF,PressureIn,WindDirection,WindDirectionDegrees,WindSpeedMPH,WindSpeedGustMPH,Humidity,HourlyPrecipIn,Conditions,Clouds,dailyrainin,SoftwareType,DateUTC
2013-05-24 00:04:00,37.1,27.2,28.28,SSW,202,1.0,1.0,67,0.00,,---,0.00,VWS V14.01,2013-05-24 05:04:00,
2013-05-24 00:09:00,37.0,27.4,28.28,SSW,202,0.0,0.0,68,0.00,,---,0.00,VWS V14.01,2013-05-24 05:09:00,
2013-05-24 00:15:00,36.9,27.3,28.28,SSW,202,0.0,0.0,68,0.00,,---,0.00,VWS V14.01,2013-05-24 05:15:00,
2013-05-24 00:20:00,36.8,27.2,28.29,SSW,202,0.0,0.0,68,0.00,,---,0.00,VWS V14.01,2013-05-24 05:20:00,
2013-05-24 00:25:00,36.8,27.2,28.29,SSW,202,0.0,0.0,68,0.00,,---,0.00,VWS V14.01,2013-05-24 05:25:00,
2013-05-24 00:30:00,36.6,27.4,28.29,SSW,202,0.0,0.0,69,0.00,,---,0.00,VWS V14.01,2013-05-24 05:30:00,
2013-05-24 00:36:00,36.4,27.2,28.29,SSW,202,0.0,0.0,69,0.00,,---,0.00,VWS V14.01,2013-05-24 05:36:00,
2013-05-24 00:41:00,36.4,27.2,28.29,SSW,202,0.0,0.0,69,0.00,,---,0.00,VWS V14.01,2013-05-24 05:41:00,
2013-05-24 00:46:00,36.2,27.4,28.29,SSW,202,0.0,0.0,70,0.00,,---,0.00,VWS V14.01,2013-05-24 05:46:00,
2013-05-24 00:51:00,36.3,27.5,28.29,SSW,202,0.0,0.0,70,0.00,,---,0.00,VWS V14.01,2013-05-24 05:51:00,
2013-05-24 00:56:00,36.2,27.0,28.29,SSW,202,0.0,0.0,69,0.00,,---,0.00,VWS V14.01,2013-05-24 05:56:00,
2013-05-24 01:01:00,36.2,27.4,28.28,SSW,202,0.0,0.0,70,0.00,,---,0.00,VWS V14.01,2013-05-24 06:01:00,
2013-05-24 01:07:00,36.3,27.1,28.28,SSW,202,0.0,0.0,69,0.00,,---,0.00,VWS V14.01,2013-05-24 06:07:00,
2013-05-24 01:12:00,36.5,27.3,28.28,SSW,202,0.0,0.0,69,0.00,,---,0.00,VWS V14.01,2013-05-24 06:12:00,
2013-05-24 01:17:00,36.6,27.0,28.29,SSW,202,0.0,0.0,68,0.00,,---,0.00,VWS V14.01,2013-05-24 06:17:00,
2013-05-24 01:22:00,36.5,27.0,28.29,SSW,202,0.0,0.0,68,0.00,,---,0.00,VWS V14.01,2013-05-24 06:22:00,
2013-05-24 01:27:00,36.5,27.3,28.29,SSW,202,0.0,0.0,69,0.00,,---,0.00,VWS V14.01,2013-05-24 06:27:00,
2013-05-24 01:32:00,36.6,27.4,28.29,SSW,202,0.0,0.0,69,0.00,,---,0.00,VWS V14.01,2013-05-24 06:32:00,
2013-05-24 01:37:00,36.5,27.0,28.29,SSW,202,0.0,0.0,68,0.00,,---,0.00,VWS V14.01,2013-05-24 06:37:00,
2013-05-24 01:43:00,36.4,26.9,28.29,SSW,202,0.0,0.0,68,0.00,,---,0.00,VWS V14.01,2013-05-24 06:43:00,
2013-05-24 01:48:00,36.4,26.9,28.29,SSW,202,0.0,0.0,68,0.00,,---,0.00,VWS V14.01,2013-05-24 06:48:00,
2013-05-24 01:53:00,36.2,26.7,28.29,SSW,202,0.0,0.0,68,0.00,,---,0.00,VWS V14.01,2013-05-24 06:53:00,
2013-05-24 01:58:00,36.3,27.1,28.29,SSW,202,0.0,0.0,69,0.00,,---,0.00,VWS V14.01,2013-05-24 06:58:00,
2013-05-24 02:03:00,36.3,27.1,28.29,SSW,202,0.0,0.0,69,0.00,,---,0.00,VWS V14.01,2013-05-24 07:03:00,
2013-05-24 02:08:00,36.2,27.0,28.29,SSW,202,0.0,1.0,69,0.00,,---,0.00,VWS V14.01,2013-05-24 07:08:00,
2013-05-24 02:14:00,36.2,26.7,28.29,SSW,202,0.0,0.0,68,0.00,,---,0.00,VWS V14.01,2013-05-24 07:14:00,
2013-05-24 02:19:00,36.1,26.6,28.29,SSW,202,0.0,1.0,68,0.00,,---,0.00,VWS V14.01,2013-05-24 07:19:00,
2013-05-24 02:24:00,36.0,26.8,28.29,SSW,202,0.0,0.0,69,0.00,,---,0.00,VWS V14.01,2013-05-24 07:24:00,
2013-05-24 02:29:00,36.0,26.8,28.29,SSW,202,0.0,3.0,69,0.00,,---,0.00,VWS V14.01,2013-05-24 07:29:00,
2013-05-24 02:34:00,36.1,27.3,28.29,SSW,202,0.0,0.0,70,0.00,,---,0.00,VWS V14.01,2013-05-24 07:34:00,
2013-05-24 02:39:00,36.0,27.2,28.29,SSW,202,0.0,0.0,70,0.00,,---,0.00,VWS V14.01,2013-05-24 07:39:00,
2013-05-24 02:44:00,35.8,26.6,28.29,SSW,202,0.0,0.0,69,0.00,,---,0.00,VWS V14.01,2013-05-24 07:44:00,
2013-05-24 02:50:00,35.6,26.5,28.30,SSW,202,0.0,0.0,69,0.00,,---,0.00,VWS V14.01,2013-05-24 07:50:00,
2013-05-24 02:55:00,35.4,26.3,28.30,SSW,202,0.0,0.0,69,0.00,,---,0.00,VWS V14.01,2013-05-24 07:55:00,
2013-05-24 03:00:00,35.2,26.4,28.30,SSW,202,0.0,0.0,70,0.00,,---,0.00,VWS V14.01,2013-05-24 08:00:00,
2013-05-24 03:05:00,35.1,26.7,28.30,SSW,202,0.0,0.0,71,0.00,,---,0.00,VWS V14.01,2013-05-24 08:05:00,
2013-05-24 03:10:00,35.1,26.7,28.30,SSW,202,0.0,0.0,71,0.00,,---,0.00,VWS V14.01,2013-05-24 08:10:00,
2013-05-24 03:15:00,35.1,26.7,28.30,SSW,202,0.0,0.0,71,0.00,,---,0.00,VWS V14.01,2013-05-24 08:15:00,
2013-05-24 03:21:00,35.1,26.7,28.30,SSW,202,0.0,0.0,71,0.00,,---,0.00,VWS V14.01,2013-05-24 08:21:00,
2013-05-24 03:26:00,35.1,26.7,28.30,SSW,202,0.0,0.0,71,0.00,,---,0.00,VWS V14.01,2013-05-24 08:26:00,
2013-05-24 03:31:00,35.0,26.6,28.30,SSW,202,0.0,0.0,71,0.00,,---,0.00,VWS V14.01,2013-05-24 08:31:00,
2013-05-24 03:36:00,35.0,26.6,28.30,SSW,202,0.0,0.0,71,0.00,,---,0.00,VWS V14.01,2013-05-24 08:36:00,
2013-05-24 03:41:00,35.0,26.6,28.30,SSW,202,0.0,0.0,71,0.00,,---,0.00,VWS V14.01,2013-05-24 08:41:00,
2013-05-24 03:47:00,35.2,26.8,28.30,SSW,202,0.0,0.0,71,0.00,,---,0.00,VWS V14.01,2013-05-24 08:47:00,
2013-05-24 03:52:00,35.5,26.7,28.30,SSW,202,0.0,1.0,70,0.00,,---,0.00,VWS V14.01,2013-05-24 08:52:00,
2013-05-24 03:57:00,35.6,26.8,28.30,SSW,202,0.0,0.0,70,0.00,,---,0.00,VWS V14.01,2013-05-24 08:57:00,
2013-05-24 04:02:00,35.6,26.5,28.30,SSW,202,0.0,0.0,69,0.00,,---,0.00,VWS V14.01,2013-05-24 09:02:00,
2013-05-24 04:07:00,35.6,26.5,28.30,SSW,202,0.0,0.0,69,0.00,,---,0.00,VWS V14.01,2013-05-24 09:07:00,
2013-05-24 04:12:00,35.6,26.5,28.30,SSW,202,0.0,0.0,69,0.00,,---,0.00,VWS V14.01,2013-05-24 09:12:00,
2013-05-24 04:17:00,35.5,26.7,28.30,SSW,202,0.0,1.0,70,0.00,,---,0.00,VWS V14.01,2013-05-24 09:17:00,
2013-05-24 04:22:00,35.4,26.3,28.30,SSW,202,0.0,0.0,69,0.00,,---,0.00,VWS V14.01,2013-05-24 09:22:00,
2013-05-24 04:28:00,35.4,26.3,28.30,SSW,202,0.0,0.0,69,0.00,,---,0.00,VWS V14.01,2013-05-24 09:28:00,
2013-05-24 04:33:00,35.4,26.3,28.30,SSW,202,0.0,0.0,69,0.00,,---,0.00,VWS V14.01,2013-05-24 09:33:00,
2013-05-24 04:38:00,35.4,26.3,28.30,SSW,202,0.0,0.0,69,0.00,,---,0.00,VWS V14.01,2013-05-24 09:38:00,
2013-05-24 04:43:00,35.4,26.6,28.30,SSW,202,0.0,0.0,70,0.00,,---,0.00,VWS V14.01,2013-05-24 09:43:00,
2013-05-24 04:48:00,35.3,26.5,28.30,SSW,202,0.0,0.0,70,0.00,,---,0.00,VWS V14.01,2013-05-24 09:48:00,
2013-05-24 04:53:00,35.2,26.8,28.30,SSW,202,0.0,0.0,71,0.00,,---,0.00,VWS V14.01,2013-05-24 09:53:00,
2013-05-24 04:58:00,35.1,26.7,28.30,SSW,202,0.0,0.0,71,0.00,,---,0.00,VWS V14.01,2013-05-24 09:58:00,
2013-05-24 05:04:00,35.2,26.8,28.30,SSW,202,0.0,0.0,71,0.00,,---,0.00,VWS V14.01,2013-05-24 10:04:00,
2013-05-24 05:09:00,35.1,26.7,28.30,SSW,202,0.0,0.0,71,0.00,,---,0.00,VWS V14.01,2013-05-24 10:09:00,
2013-05-24 05:14:00,35.1,26.7,28.30,SSW,202,0.0,0.0,71,0.00,,---,0.00,VWS V14.01,2013-05-24 10:14:00,
2013-05-24 05:19:00,35.5,26.7,28.30,SSW,202,0.0,0.0,70,0.00,,---,0.00,VWS V14.01,2013-05-24 10:19:00,
2013-05-24 05:24:00,35.7,26.5,28.30,SSW,202,0.0,1.0,69,0.00,,---,0.00,VWS V14.01,2013-05-24 10:24:00,
2013-05-24 05:30:00,35.9,26.7,28.30,SSW,202,0.0,0.0,69,0.00,,---,0.00,VWS V14.01,2013-05-24 10:30:00,
2013-05-24 05:35:00,36.0,26.5,28.31,SSW,202,0.0,0.0,68,0.00,,---,0.00,VWS V14.01,2013-05-24 10:35:00,
2013-05-24 05:40:00,36.1,26.6,28.31,SSW,202,0.0,0.0,68,0.00,,---,0.00,VWS V14.01,2013-05-24 10:40:00,
2013-05-24 05:45:00,36.3,26.8,28.31,SSW,202,0.0,0.0,68,0.00,,---,0.00,VWS V14.01,2013-05-24 10:45:00,
2013-05-24 05:50:00,36.5,27.0,28.31,SSW,202,0.0,1.0,68,0.00,,---,0.00,VWS V14.01,2013-05-24 10:50:00,
2013-05-24 05:55:00,36.5,27.0,28.31,SSW,202,0.0,0.0,68,0.00,,---,0.00,VWS V14.01,2013-05-24 10:55:00,
2013-05-24 06:00:00,36.7,28.5,28.31,SSW,202,0.0,0.0,72,0.00,,---,0.00,VWS V14.01,2013-05-24 11:00:00,
2013-05-24 06:06:00,36.8,27.2,28.31,SSW,202,0.0,0.0,68,0.00,,---,0.00,VWS V14.01,2013-05-24 11:06:00,
2013-05-24 06:11:00,37.2,27.3,28.31,SSW,202,1.0,1.0,67,0.00,,---,0.00,VWS V14.01,2013-05-24 11:11:00,
2013-05-24 06:16:00,37.8,27.8,28.31,SSW,202,1.0,2.0,67,0.00,,---,0.00,VWS V14.01,2013-05-24 11:16:00,
2013-05-24 06:21:00,38.6,27.9,28.31,SSW,204,0.0,6.0,65,0.00,,---,0.00,VWS V14.01,2013-05-24 11:21:00,
2013-05-24 06:26:00,39.3,28.2,28.31,SSW,204,2.0,3.0,64,0.00,,---,0.00,VWS V14.01,2013-05-24 11:26:00,
2013-05-24 06:31:00,40.0,28.4,28.32,SSW,213,2.0,3.0,63,0.00,,---,0.00,VWS V14.01,2013-05-24 11:31:00,
2013-05-24 06:36:00,40.7,28.7,28.32,SW,214,0.0,3.0,62,0.00,,---,0.00,VWS V14.01,2013-05-24 11:36:00,
2013-05-24 06:41:00,41.3,28.5,28.32,SW,215,5.0,6.0,60,0.00,,---,0.00,VWS V14.01,2013-05-24 11:41:00,
2013-05-24 06:47:00,42.0,29.1,28.32,SW,215,2.0,5.0,60,0.00,,---,0.00,VWS V14.01,2013-05-24 11:47:00,
2013-05-24 06:52:00,42.5,29.2,28.32,SSW,213,2.0,5.0,59,0.00,,---,0.00,VWS V14.01,2013-05-24 11:52:00,
2013-05-24 06:57:00,43.0,29.2,28.32,SW,217,3.0,3.0,58,0.00,,---,0.00,VWS V14.01,2013-05-24 11:57:00,
2013-05-24 07:02:00,43.4,29.2,28.32,SW,217,1.0,4.0,57,0.00,,---,0.00,VWS V14.01,2013-05-24 12:02:00,
2013-05-24 07:08:00,43.9,28.8,28.32,SW,217,5.0,7.0,55,0.00,,---,0.00,VWS V14.01,2013-05-24 12:08:00,
2013-05-24 07:13:00,44.2,29.1,28.32,SW,223,5.0,7.0,55,0.00,,---,0.00,VWS V14.01,2013-05-24 12:13:00,
2013-05-24 07:18:00,44.5,29.8,28.32,SSW,200,5.0,5.0,56,0.00,,---,0.00,VWS V14.01,2013-05-24 12:18:00,
2013-05-24 07:23:00,45.0,29.8,28.32,SSW,195,0.0,2.0,55,0.00,,---,0.00,VWS V14.01,2013-05-24 12:23:00,
2013-05-24 07:28:00,45.4,29.7,28.32,SSW,201,3.0,3.0,54,0.00,,---,0.00,VWS V14.01,2013-05-24 12:28:00,
2013-05-24 07:34:00,45.8,29.7,28.32,SSW,208,6.0,6.0,53,0.00,,---,0.00,VWS V14.01,2013-05-24 12:34:00,
2013-05-24 07:39:00,46.0,30.3,28.32,SW,217,6.0,6.0,54,0.00,,---,0.00,VWS V14.01,2013-05-24 12:39:00,
2013-05-24 07:44:00,46.3,30.1,28.32,SSW,212,7.0,7.0,53,0.00,,---,0.00,VWS V14.01,2013-05-24 12:44:00,
2013-05-24 07:49:00,46.4,29.8,28.32,SSW,210,7.0,7.0,52,0.00,,---,0.00,VWS V14.01,2013-05-24 12:49:00,
2013-05-24 07:54:00,46.5,30.3,28.32,SW,216,3.0,3.0,53,0.00,,---,0.00,VWS V14.01,2013-05-24 12:54:00,
2013-05-24 07:59:00,47.0,29.8,28.32,SSW,196,8.0,8.0,51,0.00,,---,0.00,VWS V14.01,2013-05-24 12:59:00,
2013-05-24 08:04:00,47.2,30.0,28.32,SW,231,5.0,9.0,51,0.00,,---,0.00,VWS V14.01,2013-05-24 13:04:00,
2013-05-24 08:09:00,47.4,30.2,28.32,SW,223,3.0,7.0,51,0.00,,---,0.00,VWS V14.01,2013-05-24 13:09:00,
2013-05-24 08:14:00,47.7,30.0,28.32,SW,219,4.0,9.0,50,0.00,,---,0.00,VWS V14.01,2013-05-24 13:14:00,
2013-05-24 08:19:00,47.8,30.6,28.33,SSW,210,2.0,4.0,51,0.00,,---,0.00,VWS V14.01,2013-05-24 13:19:00,
2013-05-24 08:24:00,48.6,30.8,28.33,WSW,238,0.0,1.0,50,0.00,,---,0.00,VWS V14.01,2013-05-24 13:24:00,
2013-05-24 08:29:00,49.3,31.5,28.33,WSW,257,1.0,4.0,50,0.00,,---,0.00,VWS V14.01,2013-05-24 13:29:00,
2013-05-24 08:35:00,49.6,31.2,28.33,SSW,202,0.0,2.0,49,0.00,,---,0.00,VWS V14.01,2013-05-24 13:35:00,
2013-05-24 08:40:00,49.7,31.8,28.33,SSW,210,1.0,4.0,50,0.00,,---,0.00,VWS V14.01,2013-05-24 13:40:00,
2013-05-24 08:45:00,49.9,32.0,28.33,SW,235,3.0,4.0,50,0.00,,---,0.00,VWS V14.01,2013-05-24 13:45:00,
2013-05-24 08:50:00,49.9,31.0,28.33,SW,226,3.0,8.0,48,0.00,,---,0.00,VWS V14.01,2013-05-24 13:50:00,
2013-05-24 08:55:00,50.1,31.7,28.33,South,180,1.0,3.0,49,0.00,,---,0.00,VWS V14.01,2013-05-24 13:55:00,
2013-05-24 09:00:00,50.4,32.0,28.32,SW,215,4.0,7.0,49,0.00,,---,0.00,VWS V14.01,2013-05-24 14:00:00,
2013-05-24 09:06:00,50.5,32.1,28.32,SSW,204,7.0,8.0,49,0.00,,---,0.00,VWS V14.01,2013-05-24 14:06:00,
2013-05-24 09:11:00,50.6,32.2,28.32,South,184,2.0,2.0,49,0.00,,---,0.00,VWS V14.01,2013-05-24 14:11:00,
2013-05-24 09:16:00,51.4,31.9,28.32,West,278,1.0,3.0,47,0.00,,---,0.00,VWS V14.01,2013-05-24 14:16:00,
2013-05-24 09:21:00,51.7,32.1,28.32,SW,234,4.0,4.0,47,0.00,,---,0.00,VWS V14.01,2013-05-24 14:21:00,
2013-05-24 09:27:00,52.1,32.0,28.32,South,180,1.0,4.0,46,0.00,,---,0.00,VWS V14.01,2013-05-24 14:27:00,
2013-05-24 09:32:00,52.4,32.2,28.32,SW,214,3.0,5.0,46,0.00,,---,0.00,VWS V14.01,2013-05-24 14:32:00,
2013-05-24 09:37:00,52.4,32.2,28.32,WSW,246,4.0,4.0,46,0.00,,---,0.00,VWS V14.01,2013-05-24 14:37:00,
2013-05-24 09:42:00,52.9,32.2,28.32,SSW,212,4.0,4.0,45,0.00,,---,0.00,VWS V14.01,2013-05-24 14:42:00,
2013-05-24 09:47:00,53.0,32.2,28.32,SSW,195,2.0,2.0,45,0.00,,---,0.00,VWS V14.01,2013-05-24 14:47:00,
2013-05-24 09:52:00,53.7,33.4,28.32,SSW,192,5.0,9.0,46,0.00,,---,0.00,VWS V14.01,2013-05-24 14:52:00,
2013-05-24 09:57:00,53.5,32.7,28.32,SW,222,3.0,3.0,45,0.00,,---,0.00,VWS V14.01,2013-05-24 14:57:00,
2013-05-24 10:03:00,53.9,32.5,28.31,SSW,201,1.0,2.0,44,0.00,,---,0.00,VWS V14.01,2013-05-24 15:03:00,
2013-05-24 10:08:00,53.9,32.5,28.31,WNW,299,0.0,3.0,44,0.00,,---,0.00,VWS V14.01,2013-05-24 15:08:00,
2013-05-24 10:13:00,55.1,32.4,28.31,WSW,245,2.0,3.0,42,0.00,,---,0.00,VWS V14.01,2013-05-24 15:13:00,
2013-05-24 10:18:00,55.8,33.1,28.30,SW,227,2.0,2.0,42,0.00,,---,0.00,VWS V14.01,2013-05-24 15:18:00,
2013-05-24 10:23:00,55.7,33.6,28.30,SSW,200,0.0,0.0,43,0.00,,---,0.00,VWS V14.01,2013-05-24 15:23:00,
2013-05-24 10:28:00,55.9,32.0,28.30,North,360,0.0,1.0,40,0.00,,---,0.00,VWS V14.01,2013-05-24 15:28:00,
2013-05-24 10:34:00,56.2,32.8,28.30,WNW,285,2.0,2.0,41,0.00,,---,0.00,VWS V14.01,2013-05-24 15:34:00,
2013-05-24 10:39:00,56.6,32.6,28.30,West,271,0.0,2.0,40,0.00,,---,0.00,VWS V14.01,2013-05-24 15:39:00,
2013-05-24 10:44:00,57.4,32.7,28.30,West,269,4.0,6.0,39,0.00,,---,0.00,VWS V14.01,2013-05-24 15:44:00,
2013-05-24 10:49:00,56.9,32.8,28.30,West,272,4.0,7.0,40,0.00,,---,0.00,VWS V14.01,2013-05-24 15:49:00,
2013-05-24 10:54:00,57.2,31.8,28.30,WSW,257,0.0,2.0,38,0.00,,---,0.00,VWS V14.01,2013-05-24 15:54:00,
2013-05-24 10:59:00,57.6,32.2,28.30,NW,319,2.0,3.0,38,0.00,,---,0.00,VWS V14.01,2013-05-24 15:59:00,
2013-05-24 11:05:00,56.7,31.4,28.29,North,11,2.0,2.0,38,0.00,,---,0.00,VWS V14.01,2013-05-24 16:05:00,
2013-05-24 11:10:00,57.0,32.9,28.29,NNW,348,3.0,6.0,40,0.00,,---,0.00,VWS V14.01,2013-05-24 16:10:00,
2013-05-24 11:15:00,56.5,31.2,28.29,NNW,346,7.0,7.0,38,0.00,,---,0.00,VWS V14.01,2013-05-24 16:15:00,
2013-05-24 11:20:00,56.8,32.8,28.29,ENE,69,2.0,5.0,40,0.00,,---,0.00,VWS V14.01,2013-05-24 16:20:00,
2013-05-24 11:26:00,57.0,31.7,28.29,NNW,343,1.0,5.0,38,0.00,,---,0.00,VWS V14.01,2013-05-24 16:26:00,
2013-05-24 11:31:00,57.8,31.7,28.29,NE,53,3.0,3.0,37,0.00,,---,0.00,VWS V14.01,2013-05-24 16:31:00,
2013-05-24 11:36:00,58.5,31.7,28.29,WNW,296,2.0,5.0,36,0.00,,---,0.00,VWS V14.01,2013-05-24 16:36:00,
2013-05-24 11:41:00,59.6,32.6,28.29,SE,126,3.0,5.0,36,0.00,,---,0.00,VWS V14.01,2013-05-24 16:41:00,
2013-05-24 11:46:00,59.6,32.6,28.29,WSW,256,6.0,9.0,36,0.00,,---,0.00,VWS V14.01,2013-05-24 16:46:00,
2013-05-24 11:51:00,59.0,32.1,28.29,WSW,242,3.0,4.0,36,0.00,,---,0.00,VWS V14.01,2013-05-24 16:51:00,
2013-05-24 11:56:00,58.7,32.5,28.29,SW,217,0.0,1.0,37,0.00,,---,0.00,VWS V14.01,2013-05-24 16:56:00,
2013-05-24 12:01:00,59.0,33.5,28.28,SE,133,0.0,1.0,38,0.00,,---,0.00,VWS V14.01,2013-05-24 17:01:00,
2013-05-24 12:07:00,60.0,33.0,28.28,East,86,2.0,3.0,36,0.00,,---,0.00,VWS V14.01,2013-05-24 17:07:00,
2013-05-24 12:12:00,59.7,32.7,28.28,WSW,254,2.0,6.0,36,0.00,,---,0.00,VWS V14.01,2013-05-24 17:12:00,
2013-05-24 12:17:00,60.0,33.7,28.27,SW,222,4.0,5.0,37,0.00,,---,0.00,VWS V14.01,2013-05-24 17:17:00,
2013-05-24 12:22:00,59.6,32.6,28.27,SSW,194,1.0,7.0,36,0.00,,---,0.00,VWS V14.01,2013-05-24 17:22:00,
2013-05-24 12:27:00,59.4,32.5,28.27,West,269,1.0,3.0,36,0.00,,---,0.00,VWS V14.01,2013-05-24 17:27:00,
2013-05-24 12:32:00,59.9,32.9,28.27,SW,236,0.0,0.0,36,0.00,,---,0.00,VWS V14.01,2013-05-24 17:32:00,
2013-05-24 12:37:00,60.6,34.2,28.27,West,269,6.0,6.0,37,0.00,,---,0.00,VWS V14.01,2013-05-24 17:37:00,
2013-05-24 12:42:00,60.4,32.7,28.27,WNW,288,3.0,7.0,35,0.00,,---,0.00,VWS V14.01,2013-05-24 17:42:00,
2013-05-24 12:48:00,60.6,32.1,28.26,WSW,240,2.0,3.0,34,0.00,,---,0.00,VWS V14.01,2013-05-24 17:48:00,
2013-05-24 12:53:00,61.5,32.2,28.26,SW,217,3.0,3.0,33,0.00,,---,0.00,VWS V14.01,2013-05-24 17:53:00,
2013-05-24 12:58:00,61.0,31.7,28.26,NNW,338,8.0,8.0,33,0.00,,---,0.00,VWS V14.01,2013-05-24 17:58:00,
2013-05-24 13:03:00,61.3,32.7,28.26,SSW,208,7.0,7.0,34,0.00,,---,0.00,VWS V14.01,2013-05-24 18:03:00,
2013-05-24 13:08:00,61.2,31.9,28.26,SSW,201,1.0,4.0,33,0.00,,---,0.00,VWS V14.01,2013-05-24 18:08:00,
2013-05-24 13:13:00,61.1,31.8,28.26,South,190,4.0,5.0,33,0.00,,---,0.00,VWS V14.01,2013-05-24 18:13:00,
2013-05-24 13:19:00,61.1,31.0,28.26,SSW,194,5.0,7.0,32,0.00,,---,0.00,VWS V14.01,2013-05-24 18:19:00,
2013-05-24 13:24:00,60.8,31.5,28.26,WSW,246,3.0,8.0,33,0.00,,---,0.00,VWS V14.01,2013-05-24 18:24:00,
2013-05-24 13:29:00,61.5,31.4,28.26,WSW,250,3.0,7.0,32,0.00,,---,0.00,VWS V14.01,2013-05-24 18:29:00,
2013-05-24 13:34:00,61.6,31.5,28.25,SSW,194,2.0,2.0,32,0.00,,---,0.00,VWS V14.01,2013-05-24 18:34:00,
2013-05-24 13:39:00,61.9,31.0,28.25,WSW,243,1.0,6.0,31,0.00,,---,0.00,VWS V14.01,2013-05-24 18:39:00,
2013-05-24 13:45:00,62.4,34.4,28.25,SW,227,7.0,7.0,35,0.00,,---,0.00,VWS V14.01,2013-05-24 18:45:00,
2013-05-24 13:50:00,61.8,33.9,28.24,SSE,167,6.0,7.0,35,0.00,,---,0.00,VWS V14.01,2013-05-24 18:50:00,
2013-05-24 13:55:00,60.7,34.3,28.24,SW,214,5.0,7.0,37,0.00,,---,0.00,VWS V14.01,2013-05-24 18:55:00,
2013-05-24 14:00:00,61.3,34.8,28.24,South,179,9.0,9.0,37,0.00,,---,0.00,VWS V14.01,2013-05-24 19:00:00,
2013-05-24 14:05:00,61.3,36.2,28.24,SSW,209,0.0,7.0,39,0.00,,---,0.00,VWS V14.01,2013-05-24 19:05:00,
2013-05-24 14:10:00,61.2,35.4,28.24,South,178,3.0,3.0,38,0.00,,---,0.00,VWS V14.01,2013-05-24 19:10:00,
2013-05-24 14:15:00,61.6,36.4,28.24,South,186,4.0,5.0,39,0.00,,---,0.00,VWS V14.01,2013-05-24 19:15:00,
2013-05-24 14:20:00,61.6,35.8,28.24,South,186,0.0,5.0,38,0.00,,---,0.00,VWS V14.01,2013-05-24 19:20:00,
2013-05-24 14:26:00,61.3,34.8,28.24,SSE,161,5.0,8.0,37,0.00,,---,0.00,VWS V14.01,2013-05-24 19:26:00,
2013-05-24 14:31:00,60.8,35.1,28.24,South,174,3.0,3.0,38,0.00,,---,0.00,VWS V14.01,2013-05-24 19:31:00,
2013-05-24 14:36:00,61.3,34.8,28.24,SSE,158,5.0,6.0,37,0.00,,---,0.00,VWS V14.01,2013-05-24 19:36:00,
2013-05-24 14:41:00,60.9,34.5,28.24,SW,229,1.0,5.0,37,0.00,,---,0.00,VWS V14.01,2013-05-24 19:41:00,
2013-05-24 14:46:00,60.7,35.0,28.24,South,185,6.0,6.0,38,0.00,,---,0.00,VWS V14.01,2013-05-24 19:46:00,
2013-05-24 14:52:00,61.0,35.9,28.24,South,189,6.0,6.0,39,0.00,,---,0.00,VWS V14.01,2013-05-24 19:52:00,
2013-05-24 14:57:00,61.0,35.2,28.24,SSE,157,1.0,8.0,38,0.00,,---,0.00,VWS V14.01,2013-05-24 19:57:00,
2013-05-24 15:02:00,61.2,34.7,28.24,SSE,163,3.0,6.0,37,0.00,,---,0.00,VWS V14.01,2013-05-24 20:02:00,
2013-05-24 15:07:00,61.4,34.9,28.24,South,184,2.0,3.0,37,0.00,,---,0.00,VWS V14.01,2013-05-24 20:07:00,
2013-05-24 15:12:00,61.4,34.9,28.24,SE,138,2.0,3.0,37,0.00,,---,0.00,VWS V14.01,2013-05-24 20:12:00,
2013-05-24 15:18:00,61.6,35.1,28.23,SSW,202,8.0,10.0,37,0.00,,---,0.00,VWS V14.01,2013-05-24 20:18:00,
2013-05-24 15:23:00,61.3,34.8,28.23,SSW,195,4.0,6.0,37,0.00,,---,0.00,VWS V14.01,2013-05-24 20:23:00,
2013-05-24 15:28:00,61.4,34.9,28.23,South,171,0.0,5.0,37,0.00,,---,0.00,VWS V14.01,2013-05-24 20:28:00,
2013-05-24 15:33:00,62.3,35.7,28.22,ESE,108,7.0,7.0,37,0.00,,---,0.00,VWS V14.01,2013-05-24 20:33:00,
2013-05-24 15:38:00,62.0,34.8,28.22,South,190,2.0,4.0,36,0.00,,---,0.00,VWS V14.01,2013-05-24 20:38:00,
2013-05-24 15:44:00,62.1,35.5,28.22,South,171,9.0,9.0,37,0.00,,---,0.00,VWS V14.01,2013-05-24 20:44:00,
2013-05-24 15:49:00,62.3,35.7,28.22,SSW,206,6.0,6.0,37,0.00,,---,0.00,VWS V14.01,2013-05-24 20:49:00,
2013-05-24 15:54:00,62.9,36.9,28.22,South,172,4.0,4.0,38,0.00,,---,0.00,VWS V14.01,2013-05-24 20:54:00,
2013-05-24 15:59:00,62.2,35.6,28.22,SW,234,1.0,2.0,37,0.00,,---,0.00,VWS V14.01,2013-05-24 20:59:00,
2013-05-24 16:05:00,61.7,36.5,28.22,SE,141,6.0,8.0,39,0.00,,---,0.00,VWS V14.01,2013-05-24 21:05:00,
2013-05-24 16:10:00,61.4,35.6,28.22,SSW,200,7.0,7.0,38,0.00,,---,0.00,VWS V14.01,2013-05-24 21:10:00,
2013-05-24 16:15:00,60.6,34.2,28.22,SSW,211,2.0,9.0,37,0.00,,---,0.00,VWS V14.01,2013-05-24 21:15:00,
2013-05-24 16:20:00,60.8,35.1,28.22,SSE,159,2.0,7.0,38,0.00,,---,0.00,VWS V14.01,2013-05-24 21:20:00,
2013-05-24 16:25:00,60.9,35.1,28.22,SE,135,4.0,5.0,38,0.00,,---,0.00,VWS V14.01,2013-05-24 21:25:00,
2013-05-24 16:31:00,60.6,35.5,28.22,SSW,200,3.0,5.0,39,0.00,,---,0.00,VWS V14.01,2013-05-24 21:31:00,
2013-05-24 16:36:00,60.9,34.5,28.22,SSW,213,0.0,7.0,37,0.00,,---,0.00,VWS V14.01,2013-05-24 21:36:00,
2013-05-24 16:41:00,61.4,36.2,28.22,South,172,3.0,5.0,39,0.00,,---,0.00,VWS V14.01,2013-05-24 21:41:00,
2013-05-24 16:46:00,61.3,35.5,28.21,SSE,167,1.0,2.0,38,0.00,,---,0.00,VWS V14.01,2013-05-24 21:46:00,
2013-05-24 16:51:00,61.6,35.8,28.21,SSE,163,3.0,5.0,38,0.00,,---,0.00,VWS V14.01,2013-05-24 21:51:00,
2013-05-24 16:57:00,61.8,35.3,28.21,SSW,202,2.0,7.0,37,0.00,,---,0.00,VWS V14.01,2013-05-24 21:57:00,
2013-05-24 17:02:00,61.9,34.7,28.21,SSE,153,2.0,5.0,36,0.00,,---,0.00,VWS V14.01,2013-05-24 22:02:00,
2013-05-24 17:07:00,62.0,34.8,28.21,SSW,213,4.0,7.0,36,0.00,,---,0.00,VWS V14.01,2013-05-24 22:07:00,
2013-05-24 17:12:00,61.6,35.8,28.21,SSW,196,1.0,4.0,38,0.00,,---,0.00,VWS V14.01,2013-05-24 22:12:00,
2013-05-24 17:17:00,61.7,35.9,28.21,SSE,157,3.0,11.0,38,0.00,,---,0.00,VWS V14.01,2013-05-24 22:17:00,
2013-05-24 17:22:00,61.3,35.5,28.21,South,171,2.0,13.0,38,0.00,,---,0.00,VWS V14.01,2013-05-24 22:22:00,
2013-05-24 17:27:00,60.0,35.6,28.21,South,181,0.0,8.0,40,0.00,,---,0.00,VWS V14.01,2013-05-24 22:27:00,
2013-05-24 17:32:00,59.2,35.5,28.21,SSW,200,2.0,4.0,41,0.00,,---,0.00,VWS V14.01,2013-05-24 22:32:00,
2013-05-24 17:37:00,59.0,34.7,28.21,SSW,192,7.0,9.0,40,0.00,,---,0.00,VWS V14.01,2013-05-24 22:37:00,
2013-05-24 17:42:00,57.8,34.3,28.21,South,184,3.0,4.0,41,0.00,,---,0.00,VWS V14.01,2013-05-24 22:42:00,
2013-05-24 17:47:00,57.1,33.6,28.22,South,188,0.0,7.0,41,0.00,,---,0.00,VWS V14.01,2013-05-24 22:47:00,
2013-05-24 17:52:00,56.8,34.6,28.22,SSE,157,5.0,6.0,43,0.00,,---,0.00,VWS V14.01,2013-05-24 22:52:00,
2013-05-24 17:58:00,56.8,34.0,28.22,SW,230,4.0,10.0,42,0.00,,---,0.00,VWS V14.01,2013-05-24 22:58:00,
2013-05-24 18:03:00,56.9,34.1,28.21,SSE,165,3.0,4.0,42,0.00,,---,0.00,VWS V14.01,2013-05-24 23:03:00,
2013-05-24 18:08:00,56.8,34.0,28.21,SSW,196,0.0,5.0,42,0.00,,---,0.00,VWS V14.01,2013-05-24 23:08:00,
2013-05-24 18:13:00,57.0,33.5,28.21,SSW,211,5.0,5.0,41,0.00,,---,0.00,VWS V14.01,2013-05-24 23:13:00,
2013-05-24 18:18:00,57.3,33.8,28.22,SW,217,6.0,6.0,41,0.00,,---,0.00,VWS V14.01,2013-05-24 23:18:00,
2013-05-24 18:24:00,57.7,33.6,28.22,SW,227,0.0,3.0,40,0.00,,---,0.00,VWS V14.01,2013-05-24 23:24:00,
2013-05-24 18:29:00,57.2,33.1,28.22,SSE,162,0.0,4.0,40,0.00,,---,0.00,VWS V14.01,2013-05-24 23:29:00,
2013-05-24 18:34:00,57.0,33.5,28.22,SSE,167,2.0,6.0,41,0.00,,---,0.00,VWS V14.01,2013-05-24 23:34:00,
2013-05-24 18:39:00,56.8,34.0,28.22,SSE,148,6.0,6.0,42,0.00,,---,0.00,VWS V14.01,2013-05-24 23:39:00,
2013-05-24 18:44:00,56.6,35.0,28.22,SSE,165,3.0,7.0,44,0.00,,---,0.00,VWS V14.01,2013-05-24 23:44:00,
2013-05-24 18:50:00,56.2,33.4,28.22,SE,136,3.0,10.0,42,0.00,,---,0.00,VWS V14.01,2013-05-24 23:50:00,
2013-05-24 18:55:00,55.9,33.2,28.22,South,191,2.0,11.0,42,0.00,,---,0.00,VWS V14.01,2013-05-24 23:55:00,
2013-05-24 19:00:00,55.7,33.6,28.22,South,185,4.0,4.0,43,0.00,,---,0.00,VWS V14.01,2013-05-25 00:00:00,
2013-05-24 19:05:00,55.8,34.2,28.22,SSW,194,2.0,5.0,44,0.00,,---,0.00,VWS V14.01,2013-05-25 00:05:00,
2013-05-24 19:10:00,56.0,33.2,28.22,South,189,0.0,5.0,42,0.00,,---,0.00,VWS V14.01,2013-05-25 00:10:00,
2013-05-24 19:15:00,56.5,33.7,28.22,South,189,2.0,5.0,42,0.00,,---,0.00,VWS V14.01,2013-05-25 00:15:00,
2013-05-24 19:20:00,56.5,33.7,28.22,South,180,3.0,3.0,42,0.00,,---,0.00,VWS V14.01,2013-05-25 00:20:00,
2013-05-24 19:26:00,56.2,33.4,28.22,South,179,1.0,1.0,42,0.00,,---,0.00,VWS V14.01,2013-05-25 00:26:00,
2013-05-24 19:31:00,56.2,33.4,28.22,South,176,4.0,4.0,42,0.00,,---,0.00,VWS V14.01,2013-05-25 00:31:00,
2013-05-24 19:36:00,56.3,32.9,28.22,SSE,152,3.0,9.0,41,0.00,,---,0.00,VWS V14.01,2013-05-25 00:36:00,
2013-05-24 19:41:00,56.4,33.0,28.22,South,171,2.0,3.0,41,0.00,,---,0.00,VWS V14.01,2013-05-25 00:41:00,
2013-05-24 19:46:00,55.9,33.2,28.22,SSE,163,4.0,4.0,42,0.00,,---,0.00,VWS V14.01,2013-05-25 00:46:00,
2013-05-24 19:52:00,55.4,33.3,28.22,South,180,0.0,5.0,43,0.00,,---,0.00,VWS V14.01,2013-05-25 00:52:00,
2013-05-24 19:57:00,55.0,32.9,28.22,SSW,194,1.0,5.0,43,0.00,,---,0.00,VWS V14.01,2013-05-25 00:57:00,
2013-05-24 20:02:00,54.6,32.6,28.21,South,169,1.0,3.0,43,0.00,,---,0.00,VWS V14.01,2013-05-25 01:02:00,
2013-05-24 20:07:00,54.3,32.9,28.21,SE,140,3.0,4.0,44,0.00,,---,0.00,VWS V14.01,2013-05-25 01:07:00,
2013-05-24 20:12:00,54.0,33.2,28.21,SSE,166,1.0,3.0,45,0.00,,---,0.00,VWS V14.01,2013-05-25 01:12:00,
2013-05-24 20:17:00,53.7,32.9,28.21,South,173,0.0,4.0,45,0.00,,---,0.00,VWS V14.01,2013-05-25 01:17:00,
2013-05-24 20:22:00,53.3,33.1,28.21,SSW,202,1.0,1.0,46,0.00,,---,0.00,VWS V14.01,2013-05-25 01:22:00,
2013-05-24 20:27:00,53.0,32.8,28.21,SSE,159,4.0,4.0,46,0.00,,---,0.00,VWS V14.01,2013-05-25 01:27:00,
2013-05-24 20:33:00,52.7,32.5,28.22,South,178,0.0,2.0,46,0.00,,---,0.00,VWS V14.01,2013-05-25 01:33:00,
2013-05-24 20:38:00,52.3,32.2,28.22,South,173,5.0,8.0,46,0.00,,---,0.00,VWS V14.01,2013-05-25 01:38:00,
2013-05-24 20:43:00,52.0,32.4,28.22,South,190,4.0,6.0,47,0.00,,---,0.00,VWS V14.01,2013-05-25 01:43:00,
2013-05-24 20:48:00,51.7,32.1,28.22,SSE,152,3.0,7.0,47,0.00,,---,0.00,VWS V14.01,2013-05-25 01:48:00,
2013-05-24 20:53:00,51.3,32.8,28.22,SSE,165,3.0,3.0,49,0.00,,---,0.00,VWS V14.01,2013-05-25 01:53:00,
2013-05-24 20:58:00,51.0,32.0,28.22,South,178,5.0,5.0,48,0.00,,---,0.00,VWS V14.01,2013-05-25 01:58:00,
2013-05-24 21:04:00,50.7,31.2,28.22,SSE,157,1.0,2.0,47,0.00,,---,0.00,VWS V14.01,2013-05-25 02:04:00,
2013-05-24 21:09:00,50.4,31.5,28.22,South,181,0.0,2.0,48,0.00,,---,0.00,VWS V14.01,2013-05-25 02:09:00,
2013-05-24 21:14:00,50.1,31.2,28.22,South,183,2.0,6.0,48,0.00,,---,0.00,VWS V14.01,2013-05-25 02:14:00,
2013-05-24 21:19:00,49.9,31.5,28.23,South,189,1.0,1.0,49,0.00,,---,0.00,VWS V14.01,2013-05-25 02:19:00,
2013-05-24 21:24:00,49.7,31.8,28.23,South,169,0.0,0.0,50,0.00,,---,0.00,VWS V14.01,2013-05-25 02:24:00,
2013-05-24 21:29:00,49.6,31.7,28.23,SSW,198,0.0,3.0,50,0.00,,---,0.00,VWS V14.01,2013-05-25 02:29:00,
2013-05-24 21:35:00,49.6,31.7,28.23,South,169,2.0,2.0,50,0.00,,---,0.00,VWS V14.01,2013-05-25 02:35:00,
2013-05-24 21:40:00,49.6,30.7,28.23,South,189,1.0,7.0,48,0.00,,---,0.00,VWS V14.01,2013-05-25 02:40:00,
2013-05-24 21:45:00,49.8,30.9,28.23,SSE,168,3.0,4.0,48,0.00,,---,0.00,VWS V14.01,2013-05-25 02:45:00,
2013-05-24 21:50:00,49.8,30.9,28.23,South,177,1.0,8.0,48,0.00,,---,0.00,VWS V14.01,2013-05-25 02:50:00,
2013-05-24 21:55:00,49.8,30.9,28.23,SSE,155,1.0,4.0,48,0.00,,---,0.00,VWS V14.01,2013-05-25 02:55:00,
2013-05-24 22:00:00,49.9,30.5,28.23,SSE,161,1.0,2.0,47,0.00,,---,0.00,VWS V14.01,2013-05-25 03:00:00,
2013-05-24 22:06:00,49.9,29.4,28.23,SSW,193,1.0,6.0,45,0.00,,---,0.00,VWS V14.01,2013-05-25 03:06:00,
2013-05-24 22:11:00,49.9,30.0,28.23,SSE,163,7.0,7.0,46,0.00,,---,0.00,VWS V14.01,2013-05-25 03:11:00,
2013-05-24 22:16:00,49.9,29.4,28.23,South,169,1.0,3.0,45,0.00,,---,0.00,VWS V14.01,2013-05-25 03:16:00,
2013-05-24 22:21:00,49.9,30.0,28.23,SSE,163,2.0,5.0,46,0.00,,---,0.00,VWS V14.01,2013-05-25 03:21:00,
2013-05-24 22:26:00,49.8,29.3,28.23,SSE,160,1.0,3.0,45,0.00,,---,0.00,VWS V14.01,2013-05-25 03:26:00,
2013-05-24 22:31:00,49.7,30.3,28.23,SSE,157,0.0,5.0,47,0.00,,---,0.00,VWS V14.01,2013-05-25 03:31:00,
2013-05-24 22:37:00,49.5,30.1,28.23,SSW,196,0.0,4.0,47,0.00,,---,0.00,VWS V14.01,2013-05-25 03:37:00,
2013-05-24 22:42:00,49.3,28.9,28.23,SSE,155,0.0,2.0,45,0.00,,---,0.00,VWS V14.01,2013-05-25 03:42:00,
2013-05-24 22:47:00,49.2,29.3,28.23,SSE,151,1.0,3.0,46,0.00,,---,0.00,VWS V14.01,2013-05-25 03:47:00,
2013-05-24 22:52:00,49.1,29.2,28.23,South,191,1.0,2.0,46,0.00,,---,0.00,VWS V14.01,2013-05-25 03:52:00,
2013-05-24 22:57:00,48.9,30.1,28.23,SSE,149,9.0,9.0,48,0.00,,---,0.00,VWS V14.01,2013-05-25 03:57:00,
2013-05-24 23:01:00,48.8,30.0,28.24,SSE,158,2.0,5.0,48,0.00,,---,0.00,VWS V14.01,2013-05-25 04:01:00,
2013-05-24 23:02:00,48.8,30.0,28.24,SSE,157,1.0,3.0,48,0.00,,---,0.00,VWS V14.01,2013-05-25 04:02:00,
2013-05-24 23:07:00,48.5,30.2,28.24,SSE,156,2.0,2.0,49,0.00,,---,0.00,VWS V14.01,2013-05-25 04:07:00,
2013-05-24 23:12:00,48.3,30.0,28.24,South,170,2.0,2.0,49,0.00,,---,0.00,VWS V14.01,2013-05-25 04:12:00,
2013-05-24 23:17:00,47.9,30.2,28.24,East,90,1.0,3.0,50,0.00,,---,0.00,VWS V14.01,2013-05-25 04:17:00,
2013-05-24 23:22:00,47.4,30.2,28.24,ESE,117,1.0,2.0,51,0.00,,---,0.00,VWS V14.01,2013-05-25 04:22:00,
2013-05-24 23:28:00,46.9,30.7,28.24,East,95,5.0,6.0,53,0.00,,---,0.00,VWS V14.01,2013-05-25 04:28:00,
2013-05-24 23:33:00,46.5,30.8,28.25,SE,127,2.0,3.0,54,0.00,,---,0.00,VWS V14.01,2013-05-25 04:33:00,
2013-05-24 23:38:00,45.9,30.7,28.25,ESE,122,5.0,6.0,55,0.00,,---,0.00,VWS V14.01,2013-05-25 04:38:00,
2013-05-24 23:43:00,45.2,30.0,28.25,SE,132,2.0,3.0,55,0.00,,---,0.00,VWS V14.01,2013-05-25 04:43:00,
2013-05-24 23:48:00,44.6,29.9,28.25,NE,51,1.0,2.0,56,0.00,,---,0.00,VWS V14.01,2013-05-25 04:48:00,
2013-05-24 23:53:00,44.1,29.4,28.25,ESE,115,0.0,4.0,56,0.00,,---,0.00,VWS V14.01,2013-05-25 04:53:00,
2013-05-24 23:59:00,43.8,29.6,28.25,SE,143,1.0,3.0,57,0.00,,---,0.00,VWS V14.01,2013-05-25 04:59:00,